sensor_id;sensor_type;location;lat;lon;timestamp;pressure;altitude;pressure_sealevel;temperature;humidity
16613;BME280;8419;52.358;9.752;2023-05-17T00:01:49;101425.00;;;17.91;38.17
16613;BME280;8419;52.358;9.752;2023-05-17T00:04:35;101421.00;;;17.77;38.47
16613;BME280;8419;52.358;9.752;2023-05-17T00:07:20;101425.00;;;17.84;38.39
16613;BME280;8419;52.358;9.752;2023-05-17T00:10:07;101424.00;;;17.85;38.31
16613;BME280;8419;52.358;9.752;2023-05-17T00:12:53;101426.00;;;17.93;38.38
16613;BME280;8419;52.358;9.752;2023-05-17T00:15:39;101421.00;;;17.90;38.44
16613;BME280;8419;52.358;9.752;2023-05-17T00:18:26;101414.00;;;17.92;38.49
16613;BME280;8419;52.358;9.752;2023-05-17T00:21:11;101414.00;;;17.97;38.59
16613;BME280;8419;52.358;9.752;2023-05-17T00:23:57;101413.00;;;18.04;38.52
16613;BME280;8419;52.358;9.752;2023-05-17T00:26:42;101413.00;;;18.01;38.57
16613;BME280;8419;52.358;9.752;2023-05-17T00:29:27;101410.00;;;17.93;38.84
16613;BME280;8419;52.358;9.752;2023-05-17T00:32:13;101413.00;;;17.85;38.91
16613;BME280;8419;52.358;9.752;2023-05-17T00:34:58;101404.00;;;17.76;39.05
16613;BME280;8419;52.358;9.752;2023-05-17T00:37:44;101418.00;;;17.82;39.04
16613;BME280;8419;52.358;9.752;2023-05-17T00:40:33;101416.00;;;17.77;39.09
16613;BME280;8419;52.358;9.752;2023-05-17T00:43:18;101418.00;;;17.80;39.09
16613;BME280;8419;52.358;9.752;2023-05-17T00:46:06;101427.00;;;17.74;39.19
16613;BME280;8419;52.358;9.752;2023-05-17T00:48:52;101425.00;;;17.67;39.27
16613;BME280;8419;52.358;9.752;2023-05-17T00:51:38;101428.00;;;17.64;39.49
16613;BME280;8419;52.358;9.752;2023-05-17T00:54:25;101426.00;;;17.63;39.39
16613;BME280;8419;52.358;9.752;2023-05-17T00:57:10;101432.00;;;17.60;39.50
16613;BME280;8419;52.358;9.752;2023-05-17T00:59:57;101425.00;;;17.50;39.71
16613;BME280;8419;52.358;9.752;2023-05-17T01:02:42;101432.00;;;17.49;39.69
16613;BME280;8419;52.358;9.752;2023-05-17T01:05:29;101421.00;;;17.49;39.84
16613;BME280;8419;52.358;9.752;2023-05-17T01:08:14;101431.00;;;17.47;39.86
16613;BME280;8419;52.358;9.752;2023-05-17T01:11:08;101432.00;;;17.46;39.86
16613;BME280;8419;52.358;9.752;2023-05-17T01:14:06;101438.00;;;17.51;39.80
16613;BME280;8419;52.358;9.752;2023-05-17T01:16:55;101441.00;;;17.50;39.75
16613;BME280;8419;52.358;9.752;2023-05-17T01:20:02;101446.00;;;17.45;39.85
16613;BME280;8419;52.358;9.752;2023-05-17T01:22:57;101449.00;;;17.48;39.79
16613;BME280;8419;52.358;9.752;2023-05-17T01:26:02;101445.00;;;17.49;39.76
16613;BME280;8419;52.358;9.752;2023-05-17T01:28:52;101441.00;;;17.45;39.78
16613;BME280;8419;52.358;9.752;2023-05-17T01:31:38;101443.00;;;17.39;40.04
16613;BME280;8419;52.358;9.752;2023-05-17T01:34:25;101442.00;;;17.58;39.71
16613;BME280;8419;52.358;9.752;2023-05-17T01:37:10;101445.00;;;17.37;40.08
16613;BME280;8419;52.358;9.752;2023-05-17T01:39:56;101443.00;;;17.51;39.83
16613;BME280;8419;52.358;9.752;2023-05-17T01:42:44;101453.00;;;17.36;40.14
16613;BME280;8419;52.358;9.752;2023-05-17T01:45:36;101451.00;;;17.42;40.05
16613;BME280;8419;52.358;9.752;2023-05-17T01:48:33;101449.00;;;17.48;40.00
16613;BME280;8419;52.358;9.752;2023-05-17T01:51:21;101455.00;;;17.50;39.92
16613;BME280;8419;52.358;9.752;2023-05-17T01:54:10;101458.00;;;17.52;39.94
16613;BME280;8419;52.358;9.752;2023-05-17T01:56:58;101458.00;;;17.44;40.13
16613;BME280;8419;52.358;9.752;2023-05-17T01:59:46;101468.00;;;17.42;40.26
16613;BME280;8419;52.358;9.752;2023-05-17T02:02:33;101454.00;;;17.59;40.04
16613;BME280;8419;52.358;9.752;2023-05-17T02:05:21;101457.00;;;17.69;39.83
16613;BME280;8419;52.358;9.752;2023-05-17T02:08:06;101466.00;;;17.63;40.06
16613;BME280;8419;52.358;9.752;2023-05-17T02:10:53;101464.00;;;17.82;39.83
16613;BME280;8419;52.358;9.752;2023-05-17T02:13:39;101459.00;;;17.77;40.00
16613;BME280;8419;52.358;9.752;2023-05-17T02:16:24;101468.00;;;17.67;40.31
16613;BME280;8419;52.358;9.752;2023-05-17T02:19:10;101470.00;;;17.62;40.50
16613;BME280;8419;52.358;9.752;2023-05-17T02:21:56;101464.00;;;17.66;40.53
16613;BME280;8419;52.358;9.752;2023-05-17T02:24:42;101477.00;;;17.77;40.36
16613;BME280;8419;52.358;9.752;2023-05-17T02:27:27;101480.00;;;17.92;40.12
16613;BME280;8419;52.358;9.752;2023-05-17T02:30:13;101470.00;;;17.83;40.45
16613;BME280;8419;52.358;9.752;2023-05-17T02:33:00;101466.00;;;17.84;40.46
16613;BME280;8419;52.358;9.752;2023-05-17T02:35:48;101468.00;;;17.85;40.54
16613;BME280;8419;52.358;9.752;2023-05-17T02:38:33;101468.00;;;17.95;40.44
16613;BME280;8419;52.358;9.752;2023-05-17T02:41:21;101469.00;;;17.98;40.47
16613;BME280;8419;52.358;9.752;2023-05-17T02:44:06;101471.00;;;17.94;40.61
16613;BME280;8419;52.358;9.752;2023-05-17T02:46:52;101473.00;;;17.98;40.57
16613;BME280;8419;52.358;9.752;2023-05-17T02:49:38;101480.00;;;18.01;40.57
16613;BME280;8419;52.358;9.752;2023-05-17T02:52:23;101473.00;;;18.08;40.46
16613;BME280;8419;52.358;9.752;2023-05-17T02:55:09;101488.00;;;18.01;40.70
16613;BME280;8419;52.358;9.752;2023-05-17T02:57:54;101491.00;;;17.96;40.83
16613;BME280;8419;52.358;9.752;2023-05-17T03:00:44;101487.00;;;18.04;40.64
16613;BME280;8419;52.358;9.752;2023-05-17T03:03:30;101488.00;;;18.01;40.66
16613;BME280;8419;52.358;9.752;2023-05-17T03:06:15;101493.00;;;18.07;40.45
16613;BME280;8419;52.358;9.752;2023-05-17T03:09:01;101499.00;;;17.84;40.94
16613;BME280;8419;52.358;9.752;2023-05-17T03:11:46;101504.00;;;17.87;40.88
16613;BME280;8419;52.358;9.752;2023-05-17T03:14:31;101507.00;;;17.80;40.91
16613;BME280;8419;52.358;9.752;2023-05-17T03:17:16;101504.00;;;17.71;40.96
16613;BME280;8419;52.358;9.752;2023-05-17T03:20:02;101509.00;;;17.59;41.22
16613;BME280;8419;52.358;9.752;2023-05-17T03:22:48;101513.00;;;17.59;41.16
16613;BME280;8419;52.358;9.752;2023-05-17T03:25:34;101506.00;;;17.46;41.36
16613;BME280;8419;52.358;9.752;2023-05-17T03:28:19;101523.00;;;17.48;41.39
16613;BME280;8419;52.358;9.752;2023-05-17T03:31:04;101522.00;;;17.58;41.08
16613;BME280;8419;52.358;9.752;2023-05-17T03:33:51;101519.00;;;17.50;41.36
16613;BME280;8419;52.358;9.752;2023-05-17T03:36:37;101526.00;;;17.37;41.72
16613;BME280;8419;52.358;9.752;2023-05-17T03:39:23;101522.00;;;17.40;41.65
16613;BME280;8419;52.358;9.752;2023-05-17T03:42:09;101536.00;;;17.39;41.66
16613;BME280;8419;52.358;9.752;2023-05-17T03:44:54;101536.00;;;17.36;41.77
16613;BME280;8419;52.358;9.752;2023-05-17T03:47:40;101541.00;;;17.37;41.74
16613;BME280;8419;52.358;9.752;2023-05-17T03:50:26;101543.00;;;17.31;41.89
16613;BME280;8419;52.358;9.752;2023-05-17T03:53:12;101542.00;;;17.32;41.91
16613;BME280;8419;52.358;9.752;2023-05-17T03:55:57;101548.00;;;17.34;41.88
16613;BME280;8419;52.358;9.752;2023-05-17T03:58:42;101557.00;;;17.40;41.69
16613;BME280;8419;52.358;9.752;2023-05-17T04:01:28;101550.00;;;17.38;41.72
16613;BME280;8419;52.358;9.752;2023-05-17T04:04:15;101550.00;;;17.38;41.73
16613;BME280;8419;52.358;9.752;2023-05-17T04:07:00;101561.00;;;17.48;41.48
16613;BME280;8419;52.358;9.752;2023-05-17T04:09:46;101562.00;;;17.44;41.55
16613;BME280;8419;52.358;9.752;2023-05-17T04:12:31;101572.00;;;17.50;41.40
16613;BME280;8419;52.358;9.752;2023-05-17T04:15:17;101579.00;;;17.44;41.44
16613;BME280;8419;52.358;9.752;2023-05-17T04:18:02;101574.00;;;17.45;41.39
16613;BME280;8419;52.358;9.752;2023-05-17T04:20:48;101580.00;;;17.40;41.41
16613;BME280;8419;52.358;9.752;2023-05-17T04:23:34;101577.00;;;17.37;41.44
16613;BME280;8419;52.358;9.752;2023-05-17T04:26:20;101587.00;;;17.43;41.29
16613;BME280;8419;52.358;9.752;2023-05-17T04:29:06;101594.00;;;17.44;41.21
16613;BME280;8419;52.358;9.752;2023-05-17T04:32:00;101585.00;;;17.42;41.16
16613;BME280;8419;52.358;9.752;2023-05-17T04:34:45;101592.00;;;17.38;41.14
16613;BME280;8419;52.358;9.752;2023-05-17T04:37:32;101602.00;;;17.42;41.02
16613;BME280;8419;52.358;9.752;2023-05-17T04:40:18;101600.00;;;17.41;40.91
16613;BME280;8419;52.358;9.752;2023-05-17T04:43:04;101602.00;;;17.55;40.59
16613;BME280;8419;52.358;9.752;2023-05-17T04:45:55;101613.00;;;17.46;40.71
16613;BME280;8419;52.358;9.752;2023-05-17T04:48:43;101610.00;;;17.50;40.58
16613;BME280;8419;52.358;9.752;2023-05-17T04:51:28;101613.00;;;17.52;40.54
16613;BME280;8419;52.358;9.752;2023-05-17T04:54:15;101617.00;;;17.59;40.36
16613;BME280;8419;52.358;9.752;2023-05-17T04:57:00;101616.00;;;17.57;40.33
16613;BME280;8419;52.358;9.752;2023-05-17T04:59:45;101623.00;;;17.51;40.44
16613;BME280;8419;52.358;9.752;2023-05-17T05:02:31;101634.00;;;17.67;40.17
16613;BME280;8419;52.358;9.752;2023-05-17T05:05:16;101631.00;;;17.59;40.22
16613;BME280;8419;52.358;9.752;2023-05-17T05:08:03;101641.00;;;17.65;40.07
16613;BME280;8419;52.358;9.752;2023-05-17T05:10:49;101637.00;;;17.75;39.78
16613;BME280;8419;52.358;9.752;2023-05-17T05:13:35;101653.00;;;17.66;39.84
16613;BME280;8419;52.358;9.752;2023-05-17T05:16:23;101653.00;;;17.63;39.82
16613;BME280;8419;52.358;9.752;2023-05-17T05:19:09;101656.00;;;17.82;39.38
16613;BME280;8419;52.358;9.752;2023-05-17T05:21:54;101658.00;;;17.72;39.47
16613;BME280;8419;52.358;9.752;2023-05-17T05:24:40;101667.00;;;17.70;39.45
16613;BME280;8419;52.358;9.752;2023-05-17T05:27:25;101663.00;;;17.72;39.26
16613;BME280;8419;52.358;9.752;2023-05-17T05:30:13;101678.00;;;17.77;39.14
16613;BME280;8419;52.358;9.752;2023-05-17T05:33:05;101673.00;;;17.76;39.01
16613;BME280;8419;52.358;9.752;2023-05-17T05:35:50;101679.00;;;17.83;38.88
16613;BME280;8419;52.358;9.752;2023-05-17T05:38:36;101681.00;;;17.89;38.74
16613;BME280;8419;52.358;9.752;2023-05-17T05:41:23;101685.00;;;17.94;38.61
16613;BME280;8419;52.358;9.752;2023-05-17T05:44:10;101693.00;;;17.93;38.51
16613;BME280;8419;52.358;9.752;2023-05-17T05:46:55;101700.00;;;17.89;38.30
16613;BME280;8419;52.358;9.752;2023-05-17T05:49:40;101702.00;;;17.84;38.19
16613;BME280;8419;52.358;9.752;2023-05-17T05:52:26;101697.00;;;17.83;38.04
16613;BME280;8419;52.358;9.752;2023-05-17T05:55:12;101704.00;;;17.88;37.79
16613;BME280;8419;52.358;9.752;2023-05-17T05:57:57;101705.00;;;17.90;37.65
16613;BME280;8419;52.358;9.752;2023-05-17T06:00:42;101704.00;;;17.87;37.67
16613;BME280;8419;52.358;9.752;2023-05-17T06:03:28;101709.00;;;17.94;37.58
16613;BME280;8419;52.358;9.752;2023-05-17T06:06:14;101713.00;;;17.90;37.44
16613;BME280;8419;52.358;9.752;2023-05-17T06:09:00;101717.00;;;17.97;37.30
16613;BME280;8419;52.358;9.752;2023-05-17T06:11:46;101719.00;;;18.02;37.17
16613;BME280;8419;52.358;9.752;2023-05-17T06:14:31;101714.00;;;18.15;36.83
16613;BME280;8419;52.358;9.752;2023-05-17T06:17:17;101724.00;;;18.22;36.61
16613;BME280;8419;52.358;9.752;2023-05-17T06:20:04;101723.00;;;18.25;36.51
16613;BME280;8419;52.358;9.752;2023-05-17T06:22:49;101722.00;;;18.19;36.58
16613;BME280;8419;52.358;9.752;2023-05-17T06:25:38;101716.00;;;18.50;36.11
16613;BME280;8419;52.358;9.752;2023-05-17T06:28:24;101736.00;;;18.47;36.20
16613;BME280;8419;52.358;9.752;2023-05-17T06:31:10;101740.00;;;18.49;36.03
16613;BME280;8419;52.358;9.752;2023-05-17T06:33:55;101743.00;;;18.52;35.99
16613;BME280;8419;52.358;9.752;2023-05-17T06:36:40;101743.00;;;18.49;36.05
16613;BME280;8419;52.358;9.752;2023-05-17T06:39:26;101738.00;;;18.64;35.81
16613;BME280;8419;52.358;9.752;2023-05-17T06:42:12;101745.00;;;18.68;35.71
16613;BME280;8419;52.358;9.752;2023-05-17T06:44:58;101740.00;;;18.68;35.60
16613;BME280;8419;52.358;9.752;2023-05-17T06:47:43;101750.00;;;18.75;35.49
16613;BME280;8419;52.358;9.752;2023-05-17T06:50:28;101747.00;;;18.74;35.29
16613;BME280;8419;52.358;9.752;2023-05-17T06:53:15;101746.00;;;18.75;34.96
16613;BME280;8419;52.358;9.752;2023-05-17T06:56:02;101750.00;;;18.87;34.85
16613;BME280;8419;52.358;9.752;2023-05-17T06:58:48;101763.00;;;18.94;34.51
16613;BME280;8419;52.358;9.752;2023-05-17T07:01:34;101762.00;;;18.97;34.31
16613;BME280;8419;52.358;9.752;2023-05-17T07:04:20;101763.00;;;19.07;34.03
16613;BME280;8419;52.358;9.752;2023-05-17T07:07:05;101772.00;;;19.29;33.62
16613;BME280;8419;52.358;9.752;2023-05-17T07:09:50;101774.00;;;19.48;32.95
16613;BME280;8419;52.358;9.752;2023-05-17T07:12:36;101774.00;;;19.51;32.42
16613;BME280;8419;52.358;9.752;2023-05-17T07:15:23;101780.00;;;19.64;31.83
16613;BME280;8419;52.358;9.752;2023-05-17T07:18:08;101773.00;;;19.76;31.80
16613;BME280;8419;52.358;9.752;2023-05-17T07:20:54;101790.00;;;19.82;31.40
16613;BME280;8419;52.358;9.752;2023-05-17T07:23:40;101790.00;;;19.86;31.07
16613;BME280;8419;52.358;9.752;2023-05-17T07:26:25;101794.00;;;19.92;30.80
16613;BME280;8419;52.358;9.752;2023-05-17T07:29:12;101795.00;;;19.97;30.60
16613;BME280;8419;52.358;9.752;2023-05-17T07:31:58;101799.00;;;19.98;30.44
16613;BME280;8419;52.358;9.752;2023-05-17T07:34:44;101801.00;;;20.02;30.36
16613;BME280;8419;52.358;9.752;2023-05-17T07:37:29;101811.00;;;19.92;30.34
16613;BME280;8419;52.358;9.752;2023-05-17T07:40:17;101822.00;;;19.89;30.09
16613;BME280;8419;52.358;9.752;2023-05-17T07:43:03;101824.00;;;19.81;29.85
16613;BME280;8419;52.358;9.752;2023-05-17T07:45:49;101828.00;;;19.75;29.90
16613;BME280;8419;52.358;9.752;2023-05-17T07:48:34;101819.00;;;19.52;29.97
16613;BME280;8419;52.358;9.752;2023-05-17T07:51:20;101823.00;;;19.49;29.96
16613;BME280;8419;52.358;9.752;2023-05-17T07:54:06;101830.00;;;19.49;29.67
16613;BME280;8419;52.358;9.752;2023-05-17T07:56:52;101826.00;;;19.66;29.36
16613;BME280;8419;52.358;9.752;2023-05-17T07:59:39;101833.00;;;19.80;29.17
16613;BME280;8419;52.358;9.752;2023-05-17T08:02:25;101842.00;;;20.07;29.13
16613;BME280;8419;52.358;9.752;2023-05-17T08:05:10;101855.00;;;20.16;28.96
16613;BME280;8419;52.358;9.752;2023-05-17T08:07:56;101855.00;;;20.21;29.02
16613;BME280;8419;52.358;9.752;2023-05-17T08:10:44;101856.00;;;20.18;29.00
16613;BME280;8419;52.358;9.752;2023-05-17T08:13:29;101856.00;;;20.27;28.98
16613;BME280;8419;52.358;9.752;2023-05-17T08:16:14;101859.00;;;20.49;29.00
16613;BME280;8419;52.358;9.752;2023-05-17T08:19:00;101861.00;;;20.65;28.73
16613;BME280;8419;52.358;9.752;2023-05-17T08:21:46;101866.00;;;20.71;28.66
16613;BME280;8419;52.358;9.752;2023-05-17T08:24:33;101865.00;;;20.70;28.66
16613;BME280;8419;52.358;9.752;2023-05-17T08:27:20;101870.00;;;20.77;28.62
16613;BME280;8419;52.358;9.752;2023-05-17T08:30:07;101871.00;;;20.77;28.42
16613;BME280;8419;52.358;9.752;2023-05-17T08:32:53;101873.00;;;20.72;28.50
16613;BME280;8419;52.358;9.752;2023-05-17T08:35:40;101876.00;;;20.59;28.53
16613;BME280;8419;52.358;9.752;2023-05-17T08:38:25;101876.00;;;20.48;28.75
16613;BME280;8419;52.358;9.752;2023-05-17T08:41:12;101877.00;;;20.53;28.82
16613;BME280;8419;52.358;9.752;2023-05-17T08:43:58;101872.00;;;20.69;28.65
16613;BME280;8419;52.358;9.752;2023-05-17T08:46:46;101877.00;;;20.82;28.57
16613;BME280;8419;52.358;9.752;2023-05-17T08:49:37;101875.00;;;20.93;28.45
16613;BME280;8419;52.358;9.752;2023-05-17T08:52:24;101877.00;;;21.14;28.17
16613;BME280;8419;52.358;9.752;2023-05-17T08:55:12;101874.00;;;21.23;27.74
16613;BME280;8419;52.358;9.752;2023-05-17T08:58:00;101868.00;;;21.07;27.57
16613;BME280;8419;52.358;9.752;2023-05-17T09:00:49;101882.00;;;20.96;27.58
16613;BME280;8419;52.358;9.752;2023-05-17T09:03:39;101888.00;;;20.75;27.76
16613;BME280;8419;52.358;9.752;2023-05-17T09:06:26;101881.00;;;20.81;27.64
16613;BME280;8419;52.358;9.752;2023-05-17T09:09:11;101881.00;;;20.75;27.52
16613;BME280;8419;52.358;9.752;2023-05-17T09:11:57;101885.00;;;20.75;27.81
16613;BME280;8419;52.358;9.752;2023-05-17T09:14:43;101887.00;;;20.78;27.59
16613;BME280;8419;52.358;9.752;2023-05-17T09:17:29;101881.00;;;20.76;27.75
16613;BME280;8419;52.358;9.752;2023-05-17T09:20:21;101879.00;;;20.80;27.58
16613;BME280;8419;52.358;9.752;2023-05-17T09:23:11;101875.00;;;20.96;27.25
16613;BME280;8419;52.358;9.752;2023-05-17T09:26:03;101886.00;;;21.38;26.83
16613;BME280;8419;52.358;9.752;2023-05-17T09:28:49;101880.00;;;21.34;26.44
16613;BME280;8419;52.358;9.752;2023-05-17T09:31:37;101873.00;;;21.29;26.40
16613;BME280;8419;52.358;9.752;2023-05-17T09:34:24;101876.00;;;21.07;26.37
16613;BME280;8419;52.358;9.752;2023-05-17T09:37:14;101877.00;;;20.84;26.24
16613;BME280;8419;52.358;9.752;2023-05-17T09:40:01;101873.00;;;20.73;26.24
16613;BME280;8419;52.358;9.752;2023-05-17T09:42:48;101862.00;;;20.92;25.70
16613;BME280;8419;52.358;9.752;2023-05-17T09:45:34;101860.00;;;21.45;25.23
16613;BME280;8419;52.358;9.752;2023-05-17T09:48:21;101859.00;;;21.83;24.84
16613;BME280;8419;52.358;9.752;2023-05-17T09:51:06;101862.00;;;22.07;24.37
16613;BME280;8419;52.358;9.752;2023-05-17T09:53:54;101862.00;;;22.23;24.47
16613;BME280;8419;52.358;9.752;2023-05-17T09:56:39;101870.00;;;22.17;24.19
16613;BME280;8419;52.358;9.752;2023-05-17T09:59:27;101868.00;;;22.10;24.05
16613;BME280;8419;52.358;9.752;2023-05-17T10:02:21;101855.00;;;22.18;23.78
16613;BME280;8419;52.358;9.752;2023-05-17T10:05:11;101867.00;;;22.30;23.79
16613;BME280;8419;52.358;9.752;2023-05-17T10:07:57;101867.00;;;22.41;23.92
16613;BME280;8419;52.358;9.752;2023-05-17T10:10:43;101870.00;;;22.40;24.11
16613;BME280;8419;52.358;9.752;2023-05-17T10:13:33;101874.00;;;22.50;24.23
16613;BME280;8419;52.358;9.752;2023-05-17T10:16:20;101872.00;;;22.57;24.05
16613;BME280;8419;52.358;9.752;2023-05-17T10:19:08;101876.00;;;22.60;24.04
16613;BME280;8419;52.358;9.752;2023-05-17T10:21:56;101870.00;;;22.75;24.11
16613;BME280;8419;52.358;9.752;2023-05-17T10:24:43;101878.00;;;23.15;23.70
16613;BME280;8419;52.358;9.752;2023-05-17T10:27:30;101884.00;;;23.22;23.45
16613;BME280;8419;52.358;9.752;2023-05-17T10:30:17;101882.00;;;23.04;23.29
16613;BME280;8419;52.358;9.752;2023-05-17T10:33:06;101887.00;;;23.14;23.28
16613;BME280;8419;52.358;9.752;2023-05-17T10:35:53;101893.00;;;23.00;22.89
16613;BME280;8419;52.358;9.752;2023-05-17T10:38:40;101898.00;;;22.84;22.66
16613;BME280;8419;52.358;9.752;2023-05-17T10:41:29;101887.00;;;22.53;22.86
16613;BME280;8419;52.358;9.752;2023-05-17T10:44:18;101896.00;;;22.41;22.88
16613;BME280;8419;52.358;9.752;2023-05-17T10:47:04;101878.00;;;22.57;22.76
16613;BME280;8419;52.358;9.752;2023-05-17T10:49:50;101878.00;;;22.99;22.39
16613;BME280;8419;52.358;9.752;2023-05-17T10:52:43;101887.00;;;23.17;22.38
16613;BME280;8419;52.358;9.752;2023-05-17T10:55:37;101886.00;;;22.89;22.45
16613;BME280;8419;52.358;9.752;2023-05-17T10:58:26;101884.00;;;22.58;22.54
16613;BME280;8419;52.358;9.752;2023-05-17T11:01:49;101873.00;;;22.42;22.63
16613;BME280;8419;52.358;9.752;2023-05-17T11:04:37;101883.00;;;22.52;22.78
16613;BME280;8419;52.358;9.752;2023-05-17T11:07:27;101867.00;;;22.49;22.50
16613;BME280;8419;52.358;9.752;2023-05-17T11:10:16;101879.00;;;22.74;22.36
16613;BME280;8419;52.358;9.752;2023-05-17T11:13:21;101860.00;;;22.82;22.26
16613;BME280;8419;52.358;9.752;2023-05-17T11:16:07;101864.00;;;23.33;22.06
16613;BME280;8419;52.358;9.752;2023-05-17T11:18:54;101865.00;;;23.68;21.77
16613;BME280;8419;52.358;9.752;2023-05-17T11:21:45;101868.00;;;23.69;21.71
16613;BME280;8419;52.358;9.752;2023-05-17T11:24:31;101864.00;;;23.67;21.91
16613;BME280;8419;52.358;9.752;2023-05-17T11:27:18;101866.00;;;23.71;22.07
16613;BME280;8419;52.358;9.752;2023-05-17T11:30:20;101874.00;;;23.70;22.12
16613;BME280;8419;52.358;9.752;2023-05-17T11:33:06;101884.00;;;23.44;22.33
16613;BME280;8419;52.358;9.752;2023-05-17T11:35:53;101878.00;;;23.50;22.47
16613;BME280;8419;52.358;9.752;2023-05-17T11:38:40;101890.00;;;23.41;22.46
16613;BME280;8419;52.358;9.752;2023-05-17T11:41:26;101886.00;;;23.56;22.03
16613;BME280;8419;52.358;9.752;2023-05-17T11:44:11;101876.00;;;23.87;21.87
16613;BME280;8419;52.358;9.752;2023-05-17T11:47:04;101872.00;;;24.59;21.37
16613;BME280;8419;52.358;9.752;2023-05-17T11:49:51;101876.00;;;24.38;21.40
16613;BME280;8419;52.358;9.752;2023-05-17T11:52:46;101875.00;;;24.44;21.54
16613;BME280;8419;52.358;9.752;2023-05-17T11:55:33;101879.00;;;24.72;21.51
16613;BME280;8419;52.358;9.752;2023-05-17T11:58:25;101889.00;;;24.98;21.33
16613;BME280;8419;52.358;9.752;2023-05-17T12:01:10;101888.00;;;24.82;21.14
16613;BME280;8419;52.358;9.752;2023-05-17T12:03:59;101896.00;;;24.65;21.51
16613;BME280;8419;52.358;9.752;2023-05-17T12:10:12;101887.00;;;25.12;21.13
16613;BME280;8419;52.358;9.752;2023-05-17T12:12:58;101895.00;;;25.54;20.37
16613;BME280;8419;52.358;9.752;2023-05-17T12:15:47;101887.00;;;25.60;20.18
16613;BME280;8419;52.358;9.752;2023-05-17T12:18:36;101894.00;;;25.53;20.27
16613;BME280;8419;52.358;9.752;2023-05-17T12:21:22;101894.00;;;25.55;20.40
16613;BME280;8419;52.358;9.752;2023-05-17T12:24:08;101911.00;;;25.46;20.22
16613;BME280;8419;52.358;9.752;2023-05-17T12:26:54;101909.00;;;25.00;20.47
16613;BME280;8419;52.358;9.752;2023-05-17T12:29:40;101914.00;;;24.64;20.76
16613;BME280;8419;52.358;9.752;2023-05-17T12:32:27;101914.00;;;24.37;20.96
16613;BME280;8419;52.358;9.752;2023-05-17T12:35:14;101915.00;;;24.20;21.23
16613;BME280;8419;52.358;9.752;2023-05-17T12:38:00;101909.00;;;24.07;21.40
16613;BME280;8419;52.358;9.752;2023-05-17T12:40:46;101928.00;;;23.80;21.58
16613;BME280;8419;52.358;9.752;2023-05-17T12:43:37;101926.00;;;24.07;21.05
16613;BME280;8419;52.358;9.752;2023-05-17T12:46:23;101921.00;;;25.42;20.03
16613;BME280;8419;52.358;9.752;2023-05-17T12:49:09;101913.00;;;25.98;19.56
16613;BME280;8419;52.358;9.752;2023-05-17T12:51:55;101916.00;;;26.23;19.35
16613;BME280;8419;52.358;9.752;2023-05-17T12:54:47;101917.00;;;27.36;18.43
16613;BME280;8419;52.358;9.752;2023-05-17T12:57:34;101912.00;;;27.59;18.18
16613;BME280;8419;52.358;9.752;2023-05-17T13:00:20;101926.00;;;26.99;18.80
16613;BME280;8419;52.358;9.752;2023-05-17T13:03:14;101919.00;;;26.23;19.32
16613;BME280;8419;52.358;9.752;2023-05-17T13:06:03;101915.00;;;25.87;19.77
16613;BME280;8419;52.358;9.752;2023-05-17T13:08:58;101919.00;;;25.86;19.72
16613;BME280;8419;52.358;9.752;2023-05-17T13:11:50;101923.00;;;26.81;18.99
16613;BME280;8419;52.358;9.752;2023-05-17T13:14:37;101925.00;;;26.70;19.04
16613;BME280;8419;52.358;9.752;2023-05-17T13:17:25;101933.00;;;26.29;19.29
16613;BME280;8419;52.358;9.752;2023-05-17T13:20:11;101928.00;;;26.52;19.03
16613;BME280;8419;52.358;9.752;2023-05-17T13:22:57;101919.00;;;28.09;17.82
16613;BME280;8419;52.358;9.752;2023-05-17T13:25:45;101917.00;;;29.95;16.76
16613;BME280;8419;52.358;9.752;2023-05-17T13:28:31;101920.00;;;30.03;16.45
16613;BME280;8419;52.358;9.752;2023-05-17T13:31:18;101919.00;;;28.75;17.53
16613;BME280;8419;52.358;9.752;2023-05-17T13:34:03;101918.00;;;28.17;17.64
16613;BME280;8419;52.358;9.752;2023-05-17T13:36:49;101919.00;;;28.63;17.23
16613;BME280;8419;52.358;9.752;2023-05-17T13:39:35;101910.00;;;27.99;17.56
16613;BME280;8419;52.358;9.752;2023-05-17T13:42:21;101926.00;;;27.09;18.39
16613;BME280;8419;52.358;9.752;2023-05-17T13:45:10;101925.00;;;26.71;18.67
16613;BME280;8419;52.358;9.752;2023-05-17T13:47:57;101920.00;;;26.30;19.08
16613;BME280;8419;52.358;9.752;2023-05-17T13:50:45;101920.00;;;26.02;19.23
16613;BME280;8419;52.358;9.752;2023-05-17T13:53:31;101916.00;;;26.32;19.04
16613;BME280;8419;52.358;9.752;2023-05-17T13:56:20;101918.00;;;27.56;18.15
16613;BME280;8419;52.358;9.752;2023-05-17T13:59:06;101919.00;;;29.86;16.63
16613;BME280;8419;52.358;9.752;2023-05-17T14:01:53;101909.00;;;30.45;16.08
16613;BME280;8419;52.358;9.752;2023-05-17T14:04:38;101904.00;;;30.29;16.28
16613;BME280;8419;52.358;9.752;2023-05-17T14:07:24;101912.00;;;29.14;16.71
16613;BME280;8419;52.358;9.752;2023-05-17T14:10:10;101916.00;;;27.91;17.52
16613;BME280;8419;52.358;9.752;2023-05-17T14:12:57;101916.00;;;27.35;17.90
16613;BME280;8419;52.358;9.752;2023-05-17T14:15:43;101913.00;;;26.33;18.80
16613;BME280;8419;52.358;9.752;2023-05-17T14:18:30;101915.00;;;25.90;19.46
16613;BME280;8419;52.358;9.752;2023-05-17T14:21:16;101910.00;;;27.90;18.35
16613;BME280;8419;52.358;9.752;2023-05-17T14:24:02;101914.00;;;30.09;16.81
16613;BME280;8419;52.358;9.752;2023-05-17T14:26:48;101912.00;;;30.54;16.35
16613;BME280;8419;52.358;9.752;2023-05-17T14:29:33;101925.00;;;31.26;15.93
16613;BME280;8419;52.358;9.752;2023-05-17T14:32:22;101921.00;;;31.78;15.36
16613;BME280;8419;52.358;9.752;2023-05-17T14:35:08;101905.00;;;30.33;16.01
16613;BME280;8419;52.358;9.752;2023-05-17T14:37:53;101910.00;;;29.55;16.42
16613;BME280;8419;52.358;9.752;2023-05-17T14:40:39;101916.00;;;29.48;16.28
16613;BME280;8419;52.358;9.752;2023-05-17T14:43:25;101913.00;;;28.66;16.79
16613;BME280;8419;52.358;9.752;2023-05-17T14:46:10;101912.00;;;28.56;16.76
16613;BME280;8419;52.358;9.752;2023-05-17T14:48:59;101904.00;;;28.26;17.20